John Lustig

Scout - Hammarby
3 Apr 2027
Samstag
Verarbeitung

Persönlichkeit

Anpassungsfähigkeit (8) Ehrgeiz (16) Kontroverse (15) Loyalität (1) Druck (1) Professionalität (11) Fairness (19) Temperament (18)

Profil

Trainerstil Demokratisch
Lizenz Nationale A
Entschlossenheit 9
Menschenführung 4
Motivation 13
Disziplin 13
Arbeitszufriedenheit
59%
Ermüdung
0%
Rolle Scout
Gehalt 36.4K p/W
Vertrag 14.03.2030

Leistung

Verhalten Gut
Trainingseffektivität
21%
Spielerentwicklung
50%
Verletzungsprävention
35%
Taktische Umsetzung
40%

Letzte Ereignisse

Nahm an einer Scouting-Besprechung teil jetzt
Empfahl ein Transferziel jetzt
Empfahl ein Transferziel jetzt
Empfahl ein Transferziel jetzt
Nahm an einer Scouting-Besprechung teil 7T her
Empfahl ein Transferziel 7T her
Empfahl ein Transferziel 7T her
Empfahl ein Transferziel 7T her

Aktuell beobachtet

104
Spieler Verein Status Fähigkeit Vertrauen Beobachtet Zuletzt beobachtet Letzte Stimme
Matteo Rizzo Campobasso Aktiv 102 / 119 40% 2 02.04.2027 -
Sławomir Abramowicz Jagiellonia Aktiv 123 / 136 40% 3 02.04.2027 -
Franko Kolić Istra 1961 Aktiv 114 / 121 40% 1 02.04.2027 -
Nikita Kokarev Krylya Sovetov Aktiv 119 / 127 40% 1 01.04.2027 -
Radek Vítek Middlesbrough Aktiv 133 / 127 40% 1 01.04.2027 -
Melker Ellborg Sunderland Aktiv 120 / 115 40% 1 01.04.2027 -
Filip Marschall Huddersfield Town Aktiv 105 / 104 40% 2 21.03.2027 -
Răzvan Sava Universitatea Craiova Aktiv 131 / 133 40% 2 21.03.2027 -
Kyrylo Fesiun Shakhtar Aktiv 123 / 129 40% 1 21.03.2027 -
Jakub Badžgoň MSK Zilina Aktiv 106 / 116 40% 2 12.03.2027 -
Oleksandr Saputin Zorya Aktiv 113 / 118 40% 1 12.03.2027 -
Stevie Bausor Leicester City Aktiv 101 / 96 40% 1 11.03.2027 -
Svetoslav Vutsov Levski Aktiv 123 / 120 40% 1 11.03.2027 -
Fedor Lapoukhov CSKA Sofia Aktiv 122 / 128 40% 2 10.03.2027 -
Julián Kadijevic Gimnasia La Plata Aktiv 114 / 112 40% 1 10.03.2027 -
Sergio Barlocco Trento Aktiv 107 / 97 40% 1 10.03.2027 -
Ludovico Del Sorbo Sorrento Aktiv 113 / 116 40% 1 09.03.2027 -
George Evans Millwall Aktiv 98 / 95 40% 1 08.03.2027 -
Lorenzo Palmisani Frosinone Aktiv 129 / 122 40% 1 08.03.2027 -
Chris Brady Chicago Fire Aktiv 133 / 133 40% 2 03.03.2027 -
Killian Cahill Leyton Orient Aktiv 98 / 114 40% 1 03.03.2027 -
Ivan Pakholiuk Kolos Aktiv 117 / 128 40% 1 03.03.2027 -
Heorhii Yermakov Metalist Aktiv 120 / 123 40% 1 26.02.2027 -
Santino Barbi Talleres Aktiv 115 / 134 40% 1 26.02.2027 -
Lautaro Garzón San Martín SJ Aktiv 104 / 122 40% 1 23.02.2027 -
Elia Boseggia Novara Aktiv 98 / 110 40% 1 20.02.2027 -
Edoardo Motta Lazio Aktiv 116 / 141 40% 1 20.02.2027 -
Luka Baš Koper Aktiv 104 / 106 40% 1 20.02.2027 -
Robin Olsen Malmo FF Aktiv 122 / 129 76% 1 06.02.2027 Befürworten
Joel Allansson Halmstad Aktiv 103 / 102 76% 1 02.02.2027 Befürworten
David Mitov Nilsson IFK Norrkoping Aktiv 105 / 100 76% 1 01.02.2027 Befürworten
Joel Andersson Ludogorets Aktiv 120 / 124 40% 1 31.01.2027 -
Marwan Ateya Al Ahly Aktiv 126 / 117 40% 1 31.01.2027 -
Nahitan Nández Al-Qadisiyah Aktiv 146 / 149 40% 1 31.01.2027 -
Oleksandr Nazarenko Polissia Aktiv 127 / 115 40% 3 30.01.2027 -
Ibrahim Tarek Masr El Makasa Aktiv 117 / 110 40% 2 30.01.2027 -
Pastor CSKA Sofia Aktiv 123 / 121 40% 1 30.01.2027 -
Daniel Kyerewaa Reading Aktiv 120 / 106 40% 2 29.01.2027 -
Relebohile Mofokeng Orlando Pirates Aktiv 126 / 124 40% 1 29.01.2027 -
Samuele Birindelli Monza Aktiv 126 / 116 40% 1 29.01.2027 -
Archie Collins Peterborough United Aktiv 122 / 116 40% 1 28.01.2027 -
Ethan Williams Peterborough United Aktiv 114 / 131 40% 1 28.01.2027 -
Aschraf El Mahdioui Al-Taawoun Aktiv 135 / 141 40% 2 20.01.2027 -
Douglas Augusto Krasnodar Aktiv 136 / 130 40% 1 20.01.2027 -
Nicolás Giménez Al Wasl Aktiv 130 / 140 40% 1 20.01.2027 -
Marouan Azarkan Al Nasr Aktiv 112 / 133 40% 3 19.01.2027 -
Saïmon Bouabré Al-Hilal Aktiv 128 / 132 40% 1 19.01.2027 -
Allahyar Sayyadmanesh Lech Abgelehnt 128 / 127 40% 1 19.01.2027 Mehr Infos nötig
Gerónimo Rivera Al Wahda Aktiv 133 / 139 40% 2 18.01.2027 -
Matías González Volos NPS Aktiv 118 / 123 40% 1 18.01.2027 -
Jack Currie Oxford United Aktiv 114 / 121 40% 1 16.01.2027 -
Amir Hossein Hosseinzadeh Tractor Aktiv 125 / 138 40% 1 16.01.2027 -
Mduduzi Shabalala Kaizer Chiefs Aktiv 113 / 114 40% 1 16.01.2027 -
Itumeleng Tau Ajax Cape Town Aktiv 112 / 113 40% 2 15.01.2027 -
Juan Manuel Boselli Krasnodar Aktiv 117 / 115 40% 1 15.01.2027 -
Diego Valencia Gornik Leczna Aktiv 109 / 107 40% 1 15.01.2027 -
Robert Petkovic Zadar Aktiv 125 / 128 40% 4 14.01.2027 -
Tomás O'Connor Gimnasia y Esgrima Aktiv 115 / 113 40% 2 14.01.2027 -
Patrik Wålemark Lech Aktiv 123 / 121 40% 2 14.01.2027 -
Marlon Gomes Shakhtar Aktiv 129 / 139 40% 2 13.01.2027 -
Santiago Luján Al Ain Aktiv 126 / 122 40% 1 13.01.2027 -
Kacper Urbański Gornik Zabrze Aktiv 123 / 122 40% 1 13.01.2027 -
Emam Ashour Al Ahly Abgelehnt 144 / 121 40% 1 13.01.2027 Mehr Infos nötig
Josh Brownhill Al-Shabab Aktiv 123 / 142 40% 2 11.01.2027 -
Saba Sazonov Juve Stabia Aktiv 126 / 114 40% 1 11.01.2027 -
Adryelson Al Wasl Aktiv 127 / 136 40% 1 11.01.2027 -
Akinkunmi Amoo Ismaily Aktiv 112 / 112 40% 3 10.01.2027 -
Mikhail Ignatov Sochi Aktiv 116 / 112 40% 1 10.01.2027 -
Oswin Appollis Orlando Pirates Aktiv 130 / 126 40% 1 10.01.2027 -
Afimico Pululu Al-Hazem Aktiv 132 / 126 40% 3 08.01.2027 -
Kamogelo Sebelebele Orlando Pirates Aktiv 106 / 126 40% 1 08.01.2027 -
Siyanda Ndlovu Hearts of Oak Aktiv 107 / 132 40% 2 07.01.2027 -
Otávio Al-Qadisiyah Aktiv 135 / 129 40% 2 06.01.2027 -
Filip Szymczak Zaglebie Aktiv 111 / 113 40% 1 06.01.2027 -
Max Conway Bolton Wanderers Aktiv 111 / 104 40% 1 06.01.2027 -
Mohamed Ali Ben Romdhane Al Ahly Aktiv 128 / 142 40% 2 05.01.2027 -
Mihailo Ristić Crvena Zvezda Aktiv 137 / 122 40% 1 05.01.2027 -
Moisés CSKA Moscow Aktiv 127 / 135 40% 1 05.01.2027 -
Pedro Henrique Shakhtar Aktiv 132 / 141 40% 2 03.01.2027 -
Sayfallah Ltaief Cracovia Aktiv 119 / 122 40% 1 02.01.2027 -
Alejo Dramisino Honved Aktiv 121 / 115 40% 1 31.12.2026 -
Youssef Belammari Al Ahly Aktiv 124 / 117 40% 2 30.12.2026 -
Vinicius Tobias Shakhtar Aktiv 129 / 139 40% 1 30.12.2026 -
Daniel Phillips Stevenage Aktiv 120 / 108 40% 1 30.12.2026 -
Ibrahim Bayesh Al Dhafra Aktiv 119 / 131 40% 1 30.12.2026 -
Peter Federico Gornik Zabrze Aktiv 121 / 129 40% 1 27.12.2026 -
Thomas Carrique Andorra Aktiv 115 / 128 40% 1 27.12.2026 -
Aljoša Matko Ujpest Aktiv 124 / 109 40% 1 25.12.2026 -
Mfundo Vilakazi Kaizer Chiefs Aktiv 112 / 110 40% 1 25.12.2026 -
Juan Bezerra Zamalek Aktiv 126 / 128 40% 1 24.12.2026 -
Mauro Rodrigues Botev Plovdiv Aktiv 112 / 116 40% 1 24.12.2026 -
Max Cleworth Wrexham Aktiv 117 / 137 40% 1 22.12.2026 -
Volodymyr Brazhko Dynamo Kyiv Aktiv 129 / 125 40% 1 22.12.2026 -
Ali Soliman Masr El Makasa Aktiv 134 / 129 40% 1 21.12.2026 -
Fernando Costanza Krylya Sovetov Aktiv 119 / 126 40% 1 16.12.2026 -
Gabriel Busanello Malmo FF Aktiv 118 / 116 40% 1 16.12.2026 -
Josip Mitrović Slaven Belupo Aktiv 116 / 124 40% 1 15.12.2026 -
Conrad Wallem Valerenga Aktiv 126 / 128 40% 1 15.12.2026 -
Alex Luna Instituto Aktiv 121 / 132 40% 1 15.12.2026 -
Joaquín García Vélez Aktiv 135 / 127 40% 1 15.12.2026 -
Sidney Lima Santa Clara Aktiv 136 / 124 40% 1 15.12.2026 -
Sead Hakšabanović Malmo FF Aktiv 119 / 121 40% 1 13.12.2026 -
Gift Zwane Platinum Stars Aktiv 123 / 121 40% 1 13.12.2026 -
Marokhy Ndione Falkenberg Aktiv 103 / 103 30% 1 / 1m 12.08.2026 -